Time;durP1;ratioP1;P1;durP2;ratioP2;P2;SDS_P1;SDS_P2;PMS_P1;PMS_P2;Temp;Humidity;BMP_temperature;BMP_pressure;BME280_temperature;BME280_humidity;BME280_pressure;Samples;Min_cycle;Max_cycle;Signal;HPM_P1;HPM_P2
2022/03/16 00:00:06;;;;;;;14.25;8.07;;;;;;;-148.16;100.00;58328.31;5033052;28;20061;-72
2022/03/16 00:03:07;;;;;;;15.38;7.93;;;;;;;-148.16;100.00;58328.31;5032857;28;20080;-71
2022/03/16 00:05:54;;;;;;;14.15;7.18;;;;;;;-148.16;100.00;58328.31;5032598;28;20091;-72
2022/03/16 00:08:38;;;;;;;14.02;7.57;;;;;;;-148.16;100.00;58328.31;5018409;28;20390;-71
2022/03/16 00:11:24;;;;;;;10.57;6.68;;;;;;;-148.16;100.00;58328.31;5032832;28;20045;-72
2022/03/16 00:14:09;;;;;;;15.07;7.97;;;;;;;-148.16;100.00;58328.31;5033750;28;20052;-72
2022/03/16 00:16:54;;;;;;;12.88;7.32;;;;;;;-148.16;100.00;58328.31;5033435;28;20045;-72
2022/03/16 00:19:40;;;;;;;13.30;7.63;;;;;;;-148.16;100.00;58328.31;5032970;28;20072;-71
2022/03/16 00:22:25;;;;;;;12.40;7.00;;;;;;;-148.16;100.00;58328.31;5033321;28;20385;-71
2022/03/16 00:25:12;;;;;;;14.30;8.13;;;;;;;-148.16;100.00;58328.31;5033759;28;20551;-71
2022/03/16 00:27:57;;;;;;;16.83;8.32;;;;;;;-148.16;100.00;58328.31;5018166;28;20449;-71
2022/03/16 00:30:43;;;;;;;13.88;8.55;;;;;;;-148.16;100.00;58328.31;5018846;28;20481;-72
2022/03/16 00:33:28;;;;;;;13.95;8.07;;;;;;;-148.16;100.00;58328.31;5032025;28;20068;-70
2022/03/16 00:36:13;;;;;;;14.75;7.75;;;;;;;-148.16;100.00;58328.31;5046286;28;20510;-71
2022/03/16 00:38:58;;;;;;;15.05;8.38;;;;;;;-148.16;100.00;58328.31;5018156;28;20045;-70
2022/03/16 00:41:45;;;;;;;15.98;9.10;;;;;;;-148.16;100.00;58328.31;5032762;28;20041;-71
2022/03/16 00:44:34;;;;;;;17.75;8.52;;;;;;;-148.16;100.00;58328.31;5032520;28;20125;-72
2022/03/16 00:47:19;;;;;;;15.73;9.05;;;;;;;-148.16;100.00;58328.31;5046151;28;20466;-71
2022/03/16 00:50:05;;;;;;;15.15;7.97;;;;;;;-148.16;100.00;58328.31;5034132;28;20183;-72
2022/03/16 00:52:50;;;;;;;15.45;8.48;;;;;;;-148.16;100.00;58328.31;5019926;28;20041;-72
2022/03/16 00:55:36;;;;;;;13.32;8.65;;;;;;;-148.16;100.00;58328.31;5031847;28;20120;-74
2022/03/16 00:58:24;;;;;;;16.10;8.77;;;;;;;-148.16;100.00;58328.31;5032268;28;20439;-72
2022/03/16 01:01:10;;;;;;;15.93;8.35;;;;;;;-148.16;100.00;58328.31;5031406;28;20496;-72
2022/03/16 01:03:56;;;;;;;14.90;7.40;;;;;;;-148.16;100.00;58328.31;5031572;28;20427;-72
2022/03/16 01:06:43;;;;;;;17.40;8.35;;;;;;;-148.16;100.00;58328.31;5032698;28;20048;-72
2022/03/16 01:09:30;;;;;;;16.25;9.00;;;;;;;-148.16;100.00;58328.31;5031793;28;20064;-72
2022/03/16 01:12:20;;;;;;;14.05;8.05;;;;;;;-148.16;100.00;58328.31;5004370;28;20069;-73
2022/03/16 01:15:06;;;;;;;16.63;9.05;;;;;;;-148.16;100.00;58328.31;5031528;28;20124;-71
2022/03/16 01:17:53;;;;;;;15.23;8.55;;;;;;;-148.16;100.00;58328.31;5031134;28;20049;-72
2022/03/16 01:20:38;;;;;;;18.08;9.15;;;;;;;-148.16;100.00;58328.31;5031771;28;20041;-72
2022/03/16 01:23:23;;;;;;;13.05;8.27;;;;;;;-148.16;100.00;58328.31;5032461;28;20038;-71
2022/03/16 01:26:09;;;;;;;17.35;9.32;;;;;;;-148.16;100.00;58328.31;5031558;28;20049;-71
2022/03/16 01:28:55;;;;;;;13.77;8.57;;;;;;;-148.16;100.00;58328.31;5003871;28;20045;-71
2022/03/16 01:31:40;;;;;;;14.23;8.18;;;;;;;-148.16;100.00;58328.31;5017618;28;20404;-72
2022/03/16 01:34:26;;;;;;;17.75;8.35;;;;;;;-148.16;100.00;58328.31;5017788;28;20069;-71
2022/03/16 01:37:11;;;;;;;14.20;8.05;;;;;;;-148.16;100.00;58328.31;5030977;28;20049;-71
2022/03/16 01:39:57;;;;;;;14.20;9.00;;;;;;;-148.16;100.00;58328.31;5031170;28;20069;-71
2022/03/16 01:42:42;;;;;;;18.80;9.63;;;;;;;-148.16;100.00;58328.31;5032118;28;20061;-71
2022/03/16 01:45:28;;;;;;;17.30;9.05;;;;;;;-148.16;100.00;58328.31;5017764;28;20486;-71
2022/03/16 01:48:13;;;;;;;16.38;8.70;;;;;;;-148.16;100.00;58328.31;5012197;28;20076;-71
2022/03/16 01:50:58;;;;;;;17.67;9.48;;;;;;;-148.16;100.00;58328.31;5011994;28;20049;-71
2022/03/16 01:53:43;;;;;;;19.48;9.23;;;;;;;-148.16;100.00;58328.31;5011954;28;20554;-72
2022/03/16 01:56:28;;;;;;;18.30;10.52;;;;;;;-148.16;100.00;58328.31;5011434;28;20104;-72
2022/03/16 01:59:12;;;;;;;18.15;10.23;;;;;;;-148.16;100.00;58328.31;4997224;28;20049;-73
2022/03/16 02:01:58;;;;;;;17.92;10.48;;;;;;;-148.16;100.00;58328.31;5011072;28;20042;-71
2022/03/16 02:04:44;;;;;;;15.35;9.68;;;;;;;-148.16;100.00;58328.31;5025434;28;20037;-72
2022/03/16 02:07:29;;;;;;;17.60;9.52;;;;;;;-148.16;100.00;58328.31;5010935;28;20034;-72
2022/03/16 02:10:15;;;;;;;19.80;9.95;;;;;;;-148.16;100.00;58328.31;5012300;28;20231;-72
2022/03/16 02:13:00;;;;;;;17.23;9.40;;;;;;;-148.16;100.00;58328.31;5010773;28;20077;-73
2022/03/16 02:15:45;;;;;;;19.27;9.82;;;;;;;-148.16;100.00;58328.31;5025445;28;20514;-72
2022/03/16 02:18:30;;;;;;;16.80;9.82;;;;;;;-148.16;100.00;58328.31;5011619;28;20038;-71
2022/03/16 02:21:17;;;;;;;15.95;8.90;;;;;;;-148.16;100.00;58328.31;5012258;28;20536;-71
2022/03/16 02:24:03;;;;;;;17.30;9.27;;;;;;;-148.16;100.00;58328.31;5011772;28;20041;-71
2022/03/16 02:26:47;;;;;;;19.55;8.70;;;;;;;-148.16;100.00;58328.31;5015360;28;20068;-72
2022/03/16 02:29:34;;;;;;;17.35;9.02;;;;;;;-148.16;100.00;58328.31;5030265;28;20065;-72
2022/03/16 02:32:18;;;;;;;16.40;9.13;;;;;;;-148.16;100.00;58328.31;5030438;28;20123;-71
2022/03/16 02:35:04;;;;;;;14.65;8.65;;;;;;;-148.16;100.00;58328.31;5001678;28;20141;-71
2022/03/16 02:37:51;;;;;;;15.45;9.15;;;;;;;-148.16;100.00;58328.31;5030987;28;20671;-72
2022/03/16 02:40:36;;;;;;;16.52;8.90;;;;;;;-148.16;100.00;58328.31;5057979;28;20045;-72
2022/03/16 02:43:20;;;;;;;21.58;9.15;;;;;;;-148.16;100.00;58328.31;5016438;28;20127;-72
2022/03/16 02:46:06;;;;;;;17.33;9.27;;;;;;;-148.16;100.00;58328.31;5029687;28;20137;-71
2022/03/16 02:48:50;;;;;;;14.85;8.27;;;;;;;-148.16;100.00;58328.31;5031223;28;20141;-72
2022/03/16 02:51:35;;;;;;;17.48;9.10;;;;;;;-148.16;100.00;58328.31;5029535;28;20037;-71
2022/03/16 02:54:20;;;;;;;18.55;9.27;;;;;;;-148.16;100.00;58328.31;5030516;28;20521;-72
2022/03/16 02:57:05;;;;;;;17.35;9.32;;;;;;;-148.16;100.00;58328.31;5030670;28;20400;-71
2022/03/16 02:59:51;;;;;;;15.23;8.95;;;;;;;-148.16;100.00;58328.31;5016040;28;20041;-71
2022/03/16 03:02:37;;;;;;;16.27;9.40;;;;;;;-148.16;100.00;58328.31;5030781;28;20038;-72
2022/03/16 03:05:23;;;;;;;14.10;8.80;;;;;;;-148.16;100.00;58328.31;5031004;28;20511;-71
2022/03/16 03:08:08;;;;;;;15.43;8.68;;;;;;;-148.16;100.00;58328.31;5028258;28;20048;-71
2022/03/16 03:10:53;;;;;;;15.90;8.90;;;;;;;-148.16;100.00;58328.31;5021977;28;20045;-72
2022/03/16 03:13:39;;;;;;;15.90;8.90;;;;;;;-148.16;100.00;58328.31;5030641;28;20107;-71
2022/03/16 03:16:25;;;;;;;13.15;6.85;;;;;;;-148.16;100.00;58328.31;5030741;28;20038;-71
2022/03/16 03:19:10;;;;;;;12.95;7.40;;;;;;;-148.16;100.00;58328.31;5015586;28;20103;-71
2022/03/16 03:21:55;;;;;;;15.82;7.05;;;;;;;-148.16;100.00;58328.31;5030201;28;20069;-72
2022/03/16 03:24:40;;;;;;;15.27;6.47;;;;;;;-148.16;100.00;58328.31;5032141;28;20053;-71
2022/03/16 03:27:25;;;;;;;12.68;6.18;;;;;;;-148.16;100.00;58328.31;5018201;28;20483;-72
2022/03/16 03:30:11;;;;;;;12.60;5.90;;;;;;;-148.16;100.00;58328.31;5029676;28;20500;-72
2022/03/16 03:32:56;;;;;;;12.95;6.80;;;;;;;-148.16;100.00;58328.31;5032999;28;20547;-71
2022/03/16 03:35:41;;;;;;;11.52;6.20;;;;;;;-148.16;100.00;58328.31;5019661;28;20057;-72
2022/03/16 03:38:27;;;;;;;11.32;6.43;;;;;;;-148.16;100.00;58328.31;5034005;28;20038;-72
2022/03/16 03:41:19;;;;;;;15.27;6.00;;;;;;;-148.16;100.00;58328.31;5034522;28;20050;-72
2022/03/16 03:44:07;;;;;;;14.27;6.80;;;;;;;-148.16;100.00;58328.31;5014076;28;20045;-72
2022/03/16 03:46:55;;;;;;;13.98;6.45;;;;;;;-148.16;100.00;58328.31;5027138;28;20429;-71
2022/03/16 03:49:49;;;;;;;12.18;6.38;;;;;;;-148.16;100.00;58328.31;5013667;28;20713;-72
2022/03/16 03:52:37;;;;;;;12.00;7.45;;;;;;;-148.16;100.00;58328.31;5013330;28;20069;-72
2022/03/16 03:55:24;;;;;;;13.25;6.57;;;;;;;-148.16;100.00;58328.31;5011625;28;20042;-72
2022/03/16 03:58:11;;;;;;;12.55;6.50;;;;;;;-148.16;100.00;58328.31;5026510;28;20069;-72
2022/03/16 04:00:57;;;;;;;17.20;7.05;;;;;;;-148.16;100.00;58328.31;5006466;28;20508;-72
2022/03/16 04:03:43;;;;;;;16.45;7.72;;;;;;;-148.16;100.00;58328.31;5034609;28;20054;-73
2022/03/16 04:06:28;;;;;;;17.13;7.00;;;;;;;-148.16;100.00;58328.31;5030584;28;20045;-73
2022/03/16 04:09:13;;;;;;;13.57;7.43;;;;;;;-148.16;100.00;58328.31;5030429;28;20386;-72
2022/03/16 04:11:58;;;;;;;14.82;6.90;;;;;;;-148.16;100.00;58328.31;5031593;28;20095;-71
2022/03/16 04:14:44;;;;;;;14.13;7.93;;;;;;;-148.16;100.00;58328.31;5031100;28;20443;-72
2022/03/16 04:17:30;;;;;;;14.13;7.53;;;;;;;-148.16;100.00;58328.31;5028169;28;20506;-72
2022/03/16 04:20:18;;;;;;;12.95;7.45;;;;;;;-148.16;100.00;58328.31;5026515;28;20045;-72
2022/03/16 04:23:04;;;;;;;12.77;7.28;;;;;;;-148.16;100.00;58328.31;5032339;28;20049;-71
2022/03/16 04:25:50;;;;;;;12.45;6.80;;;;;;;-148.16;100.00;58328.31;5032552;28;20041;-71
2022/03/16 04:28:39;;;;;;;14.55;7.53;;;;;;;-148.16;100.00;58328.31;5038285;28;20578;-72
2022/03/16 04:31:25;;;;;;;16.75;6.88;;;;;;;-148.16;100.00;58328.31;5052537;28;20048;-72
2022/03/16 04:34:13;;;;;;;14.02;7.13;;;;;;;-148.16;100.00;58328.31;5052297;28;20071;-72
2022/03/16 04:37:00;;;;;;;15.65;6.82;;;;;;;-148.16;100.00;58328.31;5052684;28;20052;-72
2022/03/16 04:39:48;;;;;;;12.15;6.90;;;;;;;-148.16;100.00;58328.31;5051818;28;20056;-71
2022/03/16 04:42:37;;;;;;;14.93;6.95;;;;;;;-148.16;100.00;58328.31;5052536;28;20041;-72
2022/03/16 04:45:24;;;;;;;13.07;7.00;;;;;;;-148.16;100.00;58328.31;5055324;28;20487;-72
2022/03/16 04:48:11;;;;;;;14.90;6.35;;;;;;;-148.16;100.00;58328.31;5060165;28;20092;-71
2022/03/16 04:50:58;;;;;;;11.18;6.00;;;;;;;-148.16;100.00;58328.31;5053358;28;20056;-72
2022/03/16 04:53:43;;;;;;;10.50;6.30;;;;;;;-148.16;100.00;58328.31;5053947;28;20045;-73
2022/03/16 04:56:30;;;;;;;14.00;7.10;;;;;;;-148.16;100.00;58328.31;5053240;28;20476;-72
2022/03/16 04:59:23;;;;;;;11.52;6.80;;;;;;;-148.16;100.00;58328.31;5053504;28;20045;-72
2022/03/16 05:02:10;;;;;;;11.15;5.38;;;;;;;-148.16;100.00;58328.31;5031932;28;20041;-72
2022/03/16 05:04:59;;;;;;;9.75;6.25;;;;;;;-148.16;100.00;58328.31;5028383;28;20493;-69
2022/03/16 05:07:46;;;;;;;10.80;6.65;;;;;;;-148.16;100.00;58328.31;5029129;28;20548;-71
2022/03/16 05:10:31;;;;;;;11.50;5.78;;;;;;;-148.16;100.00;58328.31;5032889;28;20045;-69
2022/03/16 05:13:28;;;;;;;11.80;6.22;;;;;;;-148.16;100.00;58328.31;5031554;28;20041;-68
2022/03/16 05:16:18;;;;;;;8.75;5.57;;;;;;;-148.16;100.00;58328.31;5027376;28;20077;-71
2022/03/16 05:19:05;;;;;;;10.90;6.38;;;;;;;-148.16;100.00;58328.31;5029951;28;20512;-72
2022/03/16 05:21:53;;;;;;;10.55;6.15;;;;;;;-148.16;100.00;58328.31;5026344;28;20049;-68
2022/03/16 05:24:39;;;;;;;12.70;6.38;;;;;;;-148.16;100.00;58328.31;5030450;28;20033;-64
2022/03/16 05:27:27;;;;;;;11.98;5.80;;;;;;;-148.16;100.00;58328.31;5017482;28;20408;-67
2022/03/16 05:30:13;;;;;;;10.55;6.22;;;;;;;-148.16;100.00;58328.31;5028714;28;20053;-65
2022/03/16 05:33:00;;;;;;;11.63;5.80;;;;;;;-148.16;100.00;58328.31;5029166;28;20370;-66
2022/03/16 05:35:46;;;;;;;22.23;6.85;;;;;;;-148.16;100.00;58328.31;5026392;28;20049;-66
2022/03/16 05:38:33;;;;;;;11.90;5.75;;;;;;;-148.16;100.00;58328.31;5031008;28;20056;-67
2022/03/16 05:41:20;;;;;;;11.98;5.85;;;;;;;-148.16;100.00;58328.31;5031179;28;20053;-67
2022/03/16 05:44:06;;;;;;;11.02;6.13;;;;;;;-148.16;100.00;58328.31;5031139;28;20045;-66
2022/03/16 05:46:54;;;;;;;10.48;5.68;;;;;;;-148.16;100.00;58328.31;5030824;28;20413;-65
2022/03/16 05:49:39;;;;;;;8.18;5.22;;;;;;;-148.16;100.00;58328.31;5031824;28;20037;-64
2022/03/16 05:52:31;;;;;;;10.60;6.22;;;;;;;-148.16;100.00;58328.31;5031517;28;20056;-66
2022/03/16 05:55:16;;;;;;;13.38;6.30;;;;;;;-148.16;100.00;58328.31;5019278;28;20041;-65
2022/03/16 05:58:02;;;;;;;11.15;5.93;;;;;;;-148.16;100.00;58328.31;5029032;28;20045;-63
2022/03/16 06:00:51;;;;;;;12.63;6.63;;;;;;;-148.16;100.00;58328.31;5031667;28;20045;-65
2022/03/16 06:03:37;;;;;;;11.05;6.38;;;;;;;-148.16;100.00;58328.31;5032211;28;20049;-66
2022/03/16 06:06:22;;;;;;;15.02;8.00;;;;;;;-148.16;100.00;58328.31;5033048;28;20045;-59
2022/03/16 06:09:07;;;;;;;12.35;7.55;;;;;;;-148.16;100.00;58328.31;5032117;28;20048;-61
2022/03/16 06:11:53;;;;;;;13.98;7.18;;;;;;;-148.16;100.00;58328.31;5031639;28;20045;-60
2022/03/16 06:14:38;;;;;;;13.68;6.70;;;;;;;-148.16;100.00;58328.31;5043854;28;20497;-59
2022/03/16 06:17:28;;;;;;;15.88;7.45;;;;;;;-148.16;100.00;58328.31;5031486;28;20050;-60
2022/03/16 06:20:14;;;;;;;13.60;7.45;;;;;;;-148.16;100.00;58328.31;5031160;28;20053;-60
2022/03/16 06:23:04;;;;;;;14.00;7.88;;;;;;;-148.16;100.00;58328.31;5029071;28;21440;-60
2022/03/16 06:25:49;;;;;;;15.07;8.65;;;;;;;-148.16;100.00;58328.31;5030892;28;20033;-65
2022/03/16 06:28:36;;;;;;;16.70;8.32;;;;;;;-148.16;100.00;58328.31;5030514;28;20465;-61
2022/03/16 06:31:21;;;;;;;15.98;8.40;;;;;;;-148.16;100.00;58328.31;5030286;28;20042;-59
2022/03/16 06:34:08;;;;;;;16.38;8.63;;;;;;;-148.16;100.00;58328.31;5030758;28;20057;-63
2022/03/16 06:36:55;;;;;;;18.77;9.27;;;;;;;-148.16;100.00;58328.31;5030906;28;20445;-60
2022/03/16 06:39:42;;;;;;;15.75;9.43;;;;;;;-148.16;100.00;58328.31;5029983;28;20041;-62
2022/03/16 06:42:27;;;;;;;18.52;9.27;;;;;;;-148.16;100.00;58328.31;5031054;28;20143;-60
2022/03/16 06:45:12;;;;;;;15.38;8.25;;;;;;;-148.16;100.00;58328.31;5030952;28;20504;-61
2022/03/16 06:47:59;;;;;;;18.55;10.20;;;;;;;-148.16;100.00;58328.31;5029782;28;20103;-61
2022/03/16 06:50:49;;;;;;;17.83;9.52;;;;;;;-148.16;100.00;58328.31;5031166;28;20049;-60
2022/03/16 06:53:36;;;;;;;18.20;10.25;;;;;;;-148.16;100.00;58328.31;5031350;28;20045;-61
2022/03/16 06:56:21;;;;;;;16.77;9.73;;;;;;;-148.16;100.00;58328.31;5016122;28;20052;-58
2022/03/16 06:59:07;;;;;;;16.02;8.02;;;;;;;-148.16;100.00;58328.31;5015905;28;20053;-59
2022/03/16 07:01:55;;;;;;;15.93;8.38;;;;;;;-148.16;100.00;58328.31;5029853;28;20444;-59
2022/03/16 07:04:43;;;;;;;17.85;8.68;;;;;;;-148.16;100.00;58328.31;5030151;28;20076;-64
2022/03/16 07:07:28;;;;;;;16.55;8.52;;;;;;;-148.16;100.00;58328.31;5027938;28;20052;-60
2022/03/16 07:10:17;;;;;;;14.77;7.90;;;;;;;-148.16;100.00;58328.31;5028095;28;20048;-59
2022/03/16 07:13:04;;;;;;;14.77;7.10;;;;;;;-148.16;100.00;58328.31;5030982;28;20052;-61
2022/03/16 07:15:50;;;;;;;13.13;7.40;;;;;;;-148.16;100.00;58328.31;5030572;28;20048;-61
2022/03/16 07:18:39;;;;;;;12.80;7.47;;;;;;;-148.16;100.00;58328.31;5043428;28;20065;-59
2022/03/16 07:21:24;;;;;;;11.60;6.97;;;;;;;-148.16;100.00;58328.31;5029803;28;20052;-60
2022/03/16 07:24:10;;;;;;;11.13;6.50;;;;;;;-148.16;100.00;58328.31;5030584;28;20049;-60
2022/03/16 07:26:56;;;;;;;12.27;6.72;;;;;;;-148.16;100.00;58328.31;5030487;28;20100;-60
2022/03/16 07:29:43;;;;;;;14.02;7.75;;;;;;;-148.16;100.00;58328.31;5031055;28;20045;-59
2022/03/16 07:32:28;;;;;;;14.77;8.48;;;;;;;-148.16;100.00;58328.31;5030552;28;20041;-61
2022/03/16 07:35:14;;;;;;;13.10;7.10;;;;;;;-148.16;100.00;58328.31;5029899;28;20493;-60
2022/03/16 07:38:05;;;;;;;13.68;6.93;;;;;;;-148.16;100.00;58328.31;5030943;28;20130;-62
2022/03/16 07:40:51;;;;;;;11.70;6.57;;;;;;;-148.16;100.00;58328.31;5030467;28;20484;-60
2022/03/16 07:43:36;;;;;;;12.40;6.57;;;;;;;-148.16;100.00;58328.31;5031379;28;20077;-60
2022/03/16 07:46:20;;;;;;;11.55;6.78;;;;;;;-148.16;100.00;58328.31;5031869;28;20037;-60
2022/03/16 07:49:05;;;;;;;10.43;6.80;;;;;;;-148.16;100.00;58328.31;5031951;28;20050;-59
2022/03/16 07:51:50;;;;;;;11.25;7.25;;;;;;;-148.16;100.00;58328.31;5030764;28;20045;-61
2022/03/16 07:54:35;;;;;;;11.43;7.00;;;;;;;-148.16;100.00;58328.31;5014411;28;20492;-62
2022/03/16 07:57:19;;;;;;;12.27;7.18;;;;;;;-148.16;100.00;58328.31;5030565;28;20064;-60
2022/03/16 08:00:06;;;;;;;13.15;6.50;;;;;;;-148.16;100.00;58328.31;5043399;28;20045;-59
2022/03/16 08:02:54;;;;;;;10.80;5.70;;;;;;;-148.16;100.00;58328.31;5029604;28;20053;-60
2022/03/16 08:05:39;;;;;;;9.73;5.68;;;;;;;-148.16;100.00;58328.31;5031506;28;20136;-60
2022/03/16 08:08:25;;;;;;;10.70;5.88;;;;;;;-148.16;100.00;58328.31;5037331;28;20052;-60
2022/03/16 08:11:10;;;;;;;8.43;5.25;;;;;;;-148.16;100.00;58328.31;5030976;28;20550;-59
2022/03/16 08:13:55;;;;;;;10.18;5.47;;;;;;;-148.16;100.00;58328.31;5033822;28;20408;-60
2022/03/16 08:16:40;;;;;;;8.82;5.10;;;;;;;-148.16;100.00;58328.31;5046985;28;20148;-60
2022/03/16 08:19:24;;;;;;;7.72;5.07;;;;;;;-148.16;100.00;58328.31;5033894;28;20049;-59
2022/03/16 08:22:10;;;;;;;8.15;4.85;;;;;;;-148.16;100.00;58328.31;5033686;28;20049;-62
2022/03/16 08:24:56;;;;;;;7.50;4.40;;;;;;;-148.16;100.00;58328.31;5032485;28;20489;-63
2022/03/16 08:27:40;;;;;;;7.00;4.50;;;;;;;-148.16;100.00;58328.31;5018581;28;20045;-60
2022/03/16 08:30:25;;;;;;;6.43;3.95;;;;;;;-148.16;100.00;58328.31;5032526;28;20056;-60
2022/03/16 08:33:10;;;;;;;6.32;3.67;;;;;;;-148.16;100.00;58328.31;5032281;28;20439;-59
2022/03/16 08:35:57;;;;;;;7.28;4.05;;;;;;;-148.16;100.00;58328.31;5033305;28;20529;-64
2022/03/16 08:38:42;;;;;;;6.15;3.83;;;;;;;-148.16;100.00;58328.31;5033120;28;20037;-61
2022/03/16 08:41:28;;;;;;;8.98;3.88;;;;;;;-148.16;100.00;58328.31;5033128;28;20037;-62
2022/03/16 08:44:14;;;;;;;7.45;4.30;;;;;;;-148.16;100.00;58328.31;5032165;28;20049;-61
2022/03/16 08:47:00;;;;;;;6.45;4.53;;;;;;;-148.16;100.00;58328.31;5033005;28;20119;-63
2022/03/16 08:49:46;;;;;;;5.90;4.00;;;;;;;-148.16;100.00;58328.31;5032045;28;20042;-61
2022/03/16 08:52:31;;;;;;;6.38;4.15;;;;;;;-148.16;100.00;58328.31;5033148;28;20053;-61
2022/03/16 08:55:16;;;;;;;5.88;3.63;;;;;;;-148.16;100.00;58328.31;5033161;28;20060;-64
2022/03/16 08:58:00;;;;;;;6.13;3.78;;;;;;;-148.16;100.00;58328.31;5033161;28;20050;-59
2022/03/16 09:00:45;;;;;;;6.20;3.90;;;;;;;-148.16;100.00;58328.31;5031963;28;20041;-60
2022/03/16 09:03:30;;;;;;;4.72;3.50;;;;;;;-148.16;100.00;58328.31;5032950;28;20050;-60
2022/03/16 09:06:18;;;;;;;8.43;3.70;;;;;;;-148.16;100.00;58328.31;5017955;28;20049;-59
2022/03/16 09:09:03;;;;;;;5.25;3.25;;;;;;;-148.16;100.00;58328.31;5031853;28;20049;-60
2022/03/16 09:11:48;;;;;;;4.95;3.97;;;;;;;-148.16;100.00;58328.31;5033001;28;20124;-59
2022/03/16 09:14:33;;;;;;;6.70;3.70;;;;;;;-148.16;100.00;58328.31;5032884;28;20042;-61
2022/03/16 09:17:20;;;;;;;5.50;3.55;;;;;;;-148.16;100.00;58328.31;5031463;28;20418;-58
2022/03/16 09:20:07;;;;;;;4.97;3.38;;;;;;;-148.16;100.00;58328.31;5032407;28;20076;-58
2022/03/16 09:22:53;;;;;;;4.70;3.25;;;;;;;-148.16;100.00;58328.31;5045221;28;20122;-59
2022/03/16 09:25:41;;;;;;;5.13;3.10;;;;;;;-148.16;100.00;58328.31;5033083;28;20072;-62
2022/03/16 09:28:26;;;;;;;4.43;2.90;;;;;;;-148.16;100.00;58328.31;5031359;28;20041;-59
2022/03/16 09:31:11;;;;;;;5.28;3.40;;;;;;;-148.16;100.00;58328.31;5032684;28;20072;-61
2022/03/16 09:33:56;;;;;;;5.68;3.20;;;;;;;-148.16;100.00;58328.31;5031118;28;20528;-60
2022/03/16 09:36:45;;;;;;;5.88;3.20;;;;;;;-148.16;100.00;58328.31;5032274;28;20060;-61
2022/03/16 09:39:30;;;;;;;4.40;3.08;;;;;;;-148.16;100.00;58328.31;5031377;28;20473;-60
2022/03/16 09:42:15;;;;;;;3.85;2.85;;;;;;;-148.16;100.00;58328.31;5032180;28;20048;-60
2022/03/16 09:45:02;;;;;;;4.68;2.83;;;;;;;-148.16;100.00;58328.31;5032353;28;20038;-60
2022/03/16 09:47:48;;;;;;;4.22;2.70;;;;;;;-148.16;100.00;58328.31;5031614;28;20041;-59
2022/03/16 09:50:33;;;;;;;5.32;3.00;;;;;;;-148.16;100.00;58328.31;5045303;28;20049;-62
2022/03/16 09:53:19;;;;;;;5.20;3.10;;;;;;;-148.16;100.00;58328.31;5032297;28;20052;-59
2022/03/16 09:56:05;;;;;;;4.80;2.97;;;;;;;-148.16;100.00;58328.31;5032181;28;20119;-59
2022/03/16 09:58:49;;;;;;;5.50;3.22;;;;;;;-148.16;100.00;58328.31;5032175;28;20497;-62
2022/03/16 10:01:35;;;;;;;4.25;2.47;;;;;;;-148.16;100.00;58328.31;5032162;28;20140;-61
2022/03/16 10:04:30;;;;;;;4.85;3.17;;;;;;;-148.16;100.00;58328.31;5035531;28;20041;-66
2022/03/16 10:07:15;;;;;;;4.60;2.92;;;;;;;-148.16;100.00;58328.31;5040214;28;20073;-59
2022/03/16 10:13:14;;;;;;;5.38;3.30;;;;;;;-148.16;100.00;58328.31;5031402;28;20063;-59
2022/03/16 10:16:10;;;;;;;4.38;2.83;;;;;;;-148.16;100.00;58328.31;5031275;28;20521;-64
2022/03/16 10:18:57;;;;;;;6.15;3.50;;;;;;;-148.16;100.00;58328.31;5021236;28;20076;-62
2022/03/16 10:22:00;;;;;;;5.07;3.35;;;;;;;-148.16;100.00;58328.31;5048869;28;20113;-62
2022/03/16 10:24:45;;;;;;;4.72;3.20;;;;;;;-148.16;100.00;58328.31;5049165;28;20080;-61
2022/03/16 10:27:30;;;;;;;6.57;4.00;;;;;;;-148.16;100.00;58328.31;5032257;28;20041;-61
2022/03/16 10:30:15;;;;;;;6.55;3.58;;;;;;;-148.16;100.00;58328.31;5031706;28;20048;-62
2022/03/16 10:32:59;;;;;;;5.18;3.67;;;;;;;-148.16;100.00;58328.31;5044822;28;20485;-62
2022/03/16 10:36:00;;;;;;;5.55;3.80;;;;;;;-148.16;100.00;58328.31;5031833;28;20049;-61
2022/03/16 10:38:56;;;;;;;6.85;4.07;;;;;;;-148.16;100.00;58328.31;5031603;28;20072;-61
2022/03/16 10:47:50;;;;;;;7.45;4.40;;;;;;;-148.16;100.00;58328.31;5031200;28;20461;-60
2022/03/16 10:50:39;;;;;;;6.07;3.97;;;;;;;-148.16;100.00;58328.31;5030606;28;20136;-60
2022/03/16 10:53:35;;;;;;;5.57;4.13;;;;;;;-148.16;100.00;58328.31;5002548;28;20116;-59
2022/03/16 10:56:23;;;;;;;7.38;4.68;;;;;;;-148.16;100.00;58328.31;5032076;28;20052;-60
2022/03/16 10:59:09;;;;;;;7.22;4.38;;;;;;;-148.16;100.00;58328.31;5033754;28;20100;-61
2022/03/16 11:02:04;;;;;;;6.72;4.47;;;;;;;-148.16;100.00;58328.31;5031186;28;20041;-61
2022/03/16 11:04:52;;;;;;;7.20;5.15;;;;;;;-148.16;100.00;58328.31;5031763;28;20053;-61
2022/03/16 11:07:39;;;;;;;10.32;6.20;;;;;;;-148.16;100.00;58328.31;5031731;28;20045;-59
2022/03/16 11:10:24;;;;;;;13.38;7.95;;;;;;;-148.16;100.00;58328.31;5031002;28;20049;-61
2022/03/16 11:13:28;;;;;;;15.68;8.60;;;;;;;-148.16;100.00;58328.31;5016386;28;20069;-59
2022/03/16 11:16:14;;;;;;;14.45;8.75;;;;;;;-148.16;100.00;58328.31;5030918;28;20080;-62
2022/03/16 11:19:01;;;;;;;16.60;8.88;;;;;;;-148.16;100.00;58328.31;5030573;28;20533;-60
2022/03/16 11:22:01;;;;;;;20.75;9.77;;;;;;;-148.16;100.00;58328.31;5029843;28;20049;-61
2022/03/16 11:25:15;;;;;;;21.92;9.57;;;;;;;-148.16;100.00;58328.31;5030469;28;20414;-61
2022/03/16 11:28:04;;;;;;;19.70;10.73;;;;;;;-148.16;100.00;58328.31;5030726;28;20044;-63
2022/03/16 11:30:51;;;;;;;20.38;11.55;;;;;;;-148.16;100.00;58328.31;5029790;28;20050;-62
2022/03/16 11:33:50;;;;;;;21.67;11.45;;;;;;;-148.16;100.00;58328.31;5029480;28;20057;-61
2022/03/16 11:36:40;;;;;;;22.92;11.73;;;;;;;-148.16;100.00;58328.31;5029653;28;20413;-60
2022/03/16 11:39:25;;;;;;;22.70;11.25;;;;;;;-148.16;100.00;58328.31;5030646;28;20040;-60
2022/03/16 11:42:14;;;;;;;22.42;11.65;;;;;;;-148.16;100.00;58328.31;5043238;28;20084;-62
2022/03/16 11:45:38;;;;;;;21.83;10.90;;;;;;;-148.16;100.00;58328.31;5031006;28;20520;-60
2022/03/16 11:48:33;;;;;;;24.98;11.32;;;;;;;-148.16;100.00;58328.31;5046439;28;20578;-60
2022/03/16 11:51:20;;;;;;;23.13;11.63;;;;;;;-148.16;100.00;58328.31;5013426;28;20045;-61
2022/03/16 11:54:05;;;;;;;22.92;11.70;;;;;;;-148.16;100.00;58328.31;5027194;28;20037;-64
2022/03/16 11:56:53;;;;;;;19.75;10.57;;;;;;;-148.16;100.00;58328.31;5014534;28;20050;-61
2022/03/16 11:59:46;;;;;;;21.85;10.75;;;;;;;-148.16;100.00;58328.31;5013728;28;20038;-61
2022/03/16 12:02:30;;;;;;;23.83;11.60;;;;;;;-148.16;100.00;58328.31;5029344;28;20045;-61
2022/03/16 12:05:16;;;;;;;20.65;11.68;;;;;;;-148.16;100.00;58328.31;5036082;28;20045;-60
2022/03/16 12:08:14;;;;;;;19.42;11.00;;;;;;;-148.16;100.00;58328.31;5034262;28;20069;-63
2022/03/16 12:14:06;;;;;;;17.55;10.50;;;;;;;-148.16;100.00;58328.31;5013127;28;20081;-60
2022/03/16 12:17:14;;;;;;;19.48;10.15;;;;;;;-148.16;100.00;58328.31;5023420;28;20045;-59
2022/03/16 12:20:13;;;;;;;18.63;9.40;;;;;;;-148.16;100.00;58328.31;5030770;28;20041;-60
2022/03/16 12:23:00;;;;;;;17.55;9.93;;;;;;;-148.16;100.00;58328.31;5027267;28;20049;-60
2022/03/16 12:25:47;;;;;;;19.13;9.82;;;;;;;-148.16;100.00;58328.31;5033152;28;20041;-61
2022/03/16 12:31:42;;;;;;;19.35;10.10;;;;;;;-148.16;100.00;58328.31;5046527;28;20049;-61
2022/03/16 12:34:29;;;;;;;15.85;8.50;;;;;;;-148.16;100.00;58328.31;5045653;28;20069;-62
2022/03/16 12:37:14;;;;;;;16.98;9.68;;;;;;;-148.16;100.00;58328.31;5033070;28;20447;-60
2022/03/16 12:39:59;;;;;;;18.63;9.73;;;;;;;-148.16;100.00;58328.31;5033516;28;20037;-59
2022/03/16 12:42:44;;;;;;;17.95;9.93;;;;;;;-148.16;100.00;58328.31;5031399;28;20053;-62
2022/03/16 12:45:30;;;;;;;16.83;9.68;;;;;;;-148.16;100.00;58328.31;5038954;28;20163;-61